Weather at Cameron House Hotel Seaplane Base

Public forecast

Using degrees Celsius for public forecast. Weather courtesy of forecast.io.

Closest aviation weather report (METAR) to Cameron House Hotel Seaplane Base

Closest report is Glasgow International Airport, 10.3 nm (19.1 km) SE.

2023/02/01 18:50 (retrieved 21 minutes ago)

EGPF 011850Z AUTO 25008KT 9000 -RA SCT015 BKN021 OVC030 08/07 Q1016

Closest aviation forecast (TAF) to Cameron House Hotel Seaplane Base

Closest forecast is Glasgow International Airport, 10.3 nm (19.1 km) SE.

2023/02/01 18:00 (retrieved 1 hour ago)

TAF EGPF 011658Z 0118/0218 VRB03KT 9999 SCT035 BECMG 0118/0120 25010KT TEMPO 0118/0212 26015G25KT 8000 -RA BKN012 PROB30 TEMPO 0118/0121 4000 RA BKN007 PROB30 TEMPO 0202/0205 3000 RA BKN005 PROB30 TEMPO 0212/0218 26020G30KT